Pagina principală
METAR-TAF:

METAR-TAF

Aeroporturi :

Tillamook, Oregon, Statele Unite ale Americii

Latitudine: 45-25-06N, longitudine: 123-48-52W, elevație: 11 m

Observații meteo curente

Raportul a fost făcut în urmă cu 26 de minute, la 18:15 UTC
Vânt 6 kt din direcții variabile
Temperatură 16°C
Umiditate 82%
Presiune 1023 hPa
Vizibilitate: 16.1 km
Nori fragmentați la o înălțime de 3200 picior
Nori fragmentați la o înălțime de 7500 picior

METAR: KTMK 141815Z AUTO VRB06KT 10SM BKN032 BKN075 16/13 A3020 RMK AO2

Ora: 11:41 (18:41 UTC)


TAF: lipsă

Observații și prognoze meteo pentru peste 4.000 de aeroporturi (rapoarte METAR și TAF).

Stațiile disponibile sunt reprezentate pe hartă prin puncte galbene și roșii.

Țineți indicatorul mouse-ului pe punctul dorit pentru a vedea denumirea stației.

Apoi, faceți clic pentru a vedea observațiile și prognozele meteorologice.

Pentru a schimba harta: Pentru mărire, faceți clic pe butoanele verzi cu cruce neagră; pentru micșorare, pe butonul verde cu o liniuță; pentru hărți învecinate, pe săgețile verzi.


METAR-TAF: